Ana Sayfa
METAR-TAF:

METAR-TAF

Havaalanları :

Cherokee County Airport

Jacksonville, Teksas, Amerika Birleşik Devletleri

Enlem: 31-52-09N, Boylam: 095-13-02W, yükseklik: 206 m

Güncel hava durumu gözlemi

Rapor saat 17:35 UTC de 14 dakika önce yapıldı.
Rüzgar doğu/kuzeydoğudan 4 kt
Sıcaklık 15°C
Nem 59%
Basınç 1013 hPa
Görüş mesafesi: 16.1 km
Açık gökyüzü

METAR: KJSO 141735Z AUTO 06004KT 10SM CLR 15/07 A2990 RMK AO2 T01580079

Saat: 11:49 (17:49 UTC)


TAF: eksik

4.000'den fazla havaalanı için hava durumu gözlemleri ve tahminleri (METAR ve TAF raporları).

Kullanılabilir istasyonlar harita üzerinde sarı ve kırmızı noktalarla gösterilir.

İstasyonun adını görmek için fareyi noktanın üzerinde gezdirin.

Sonrasında hava gözlem ve tahminlerini görmek için tıklayın.

Haritayı değiştirmek için: yaklaştırmak için siyah artı işaretli yeşil düğmeye ve uzaklaştırmak için de eksi işaretli düğmeye hızla tıklayın; bitişik haritalar için yeşil okları kullanın.


METAR-TAF: